createdAt,value
2023-04-27T00:00:11.130Z,62.48
2023-04-27T00:02:55.067Z,62.27
2023-04-27T00:05:39.862Z,63.02
2023-04-27T00:08:23.763Z,63.25
2023-04-27T00:11:07.384Z,63.19
2023-04-27T00:13:51.070Z,62.93
2023-04-27T00:16:34.868Z,64.16
2023-04-27T00:19:18.418Z,64.33
2023-04-27T00:22:01.924Z,64.32
2023-04-27T00:24:46.046Z,64.83
2023-04-27T00:27:29.592Z,63.92
2023-04-27T00:30:13.205Z,64.38
2023-04-27T00:32:56.798Z,65.00
2023-04-27T00:35:40.356Z,64.42
2023-04-27T00:38:23.854Z,64.61
2023-04-27T00:41:08.397Z,64.42
2023-04-27T00:43:52.050Z,64.41
2023-04-27T00:46:36.334Z,64.03
2023-04-27T00:49:24.327Z,63.31
2023-04-27T00:52:07.978Z,62.85
2023-04-27T00:54:53.697Z,64.08
2023-04-27T00:57:37.661Z,64.62
2023-04-27T01:00:21.175Z,63.42
2023-04-27T01:03:05.099Z,61.68
2023-04-27T01:05:48.764Z,61.11
2023-04-27T01:08:32.401Z,61.20
2023-04-27T01:11:16.297Z,61.52
2023-04-27T01:14:07.796Z,61.41
2023-04-27T01:16:52.710Z,60.83
2023-04-27T01:19:36.291Z,61.29
2023-04-27T01:22:19.807Z,60.42
2023-04-27T01:25:03.433Z,59.80
2023-04-27T01:27:48.045Z,61.45
2023-04-27T01:30:31.630Z,61.44
2023-04-27T01:33:16.057Z,64.66
2023-04-27T01:35:59.722Z,64.01
2023-04-27T01:38:45.095Z,63.44
2023-04-27T01:41:29.854Z,63.86
2023-04-27T01:44:13.486Z,63.57
2023-04-27T01:46:57.041Z,62.93
2023-04-27T01:49:40.712Z,62.68
2023-04-27T01:52:24.247Z,63.21
2023-04-27T01:55:08.529Z,61.97
2023-04-27T01:57:52.389Z,63.14
2023-04-27T02:00:36.008Z,63.59
2023-04-27T02:03:19.758Z,63.61
2023-04-27T02:06:03.461Z,65.16
2023-04-27T02:08:47.013Z,64.95
2023-04-27T02:11:30.525Z,64.19
2023-04-27T02:14:14.373Z,64.72
2023-04-27T02:16:57.893Z,64.03
2023-04-27T02:19:41.430Z,63.60
2023-04-27T02:22:24.944Z,63.93
2023-04-27T02:25:09.176Z,64.73
2023-04-27T02:27:52.803Z,64.85
2023-04-27T02:30:37.537Z,64.89
2023-04-27T02:33:21.483Z,64.81
2023-04-27T02:36:05.411Z,64.80
2023-04-27T02:38:49.014Z,64.70
2023-04-27T02:41:32.964Z,64.14
2023-04-27T02:44:16.499Z,64.10
2023-04-27T02:47:00.180Z,64.10
2023-04-27T02:49:43.909Z,64.42
2023-04-27T02:52:28.735Z,63.63
2023-04-27T02:55:12.562Z,63.78
2023-04-27T02:57:56.071Z,63.07
2023-04-27T03:00:41.114Z,63.92
2023-04-27T03:03:24.922Z,63.92
2023-04-27T03:06:11.005Z,63.76
2023-04-27T03:08:54.594Z,63.37
2023-04-27T03:11:38.374Z,62.99
2023-04-27T03:14:23.354Z,64.66
2023-04-27T03:17:08.504Z,63.73
2023-04-27T03:19:52.282Z,64.28
2023-04-27T03:22:37.056Z,64.08
2023-04-27T03:25:20.722Z,64.36
2023-04-27T03:28:04.388Z,64.57
2023-04-27T03:30:47.944Z,64.84
2023-04-27T03:33:31.456Z,64.00
2023-04-27T03:36:15.574Z,64.15
2023-04-27T03:38:59.258Z,63.93
2023-04-27T03:41:42.921Z,64.13
2023-04-27T03:44:27.297Z,63.18
2023-04-27T03:47:11.077Z,63.38
2023-04-27T03:49:58.592Z,64.14
2023-04-27T03:52:42.794Z,63.96
2023-04-27T03:55:28.265Z,63.60
2023-04-27T03:58:12.579Z,64.21
2023-04-27T04:01:11.362Z,64.05
2023-04-27T04:03:55.602Z,64.50
2023-04-27T04:06:39.253Z,64.45
2023-04-27T04:09:23.904Z,64.31
2023-04-27T04:12:07.842Z,65.26
2023-04-27T04:14:51.622Z,65.63
2023-04-27T04:17:35.457Z,64.61
2023-04-27T04:20:19.299Z,65.76
2023-04-27T04:23:02.852Z,64.89
2023-04-27T04:25:48.376Z,64.45
2023-04-27T04:28:31.911Z,65.23
2023-04-27T04:31:17.671Z,64.63
2023-04-27T04:34:02.100Z,65.00
2023-04-27T04:36:45.711Z,64.85
2023-04-27T04:39:33.404Z,64.57
2023-04-27T04:42:17.246Z,64.76
2023-04-27T04:45:01.091Z,63.94
2023-04-27T04:47:44.717Z,64.13
2023-04-27T04:50:28.879Z,63.79
2023-04-27T04:53:12.945Z,65.43
2023-04-27T04:55:56.604Z,63.94
2023-04-27T04:58:40.821Z,63.66
2023-04-27T05:01:24.480Z,63.53
2023-04-27T05:04:08.196Z,63.75
2023-04-27T05:06:53.097Z,63.42
2023-04-27T05:09:36.743Z,63.17
2023-04-27T05:12:20.308Z,64.08
2023-04-27T05:15:05.364Z,65.27
2023-04-27T05:17:49.093Z,64.89
2023-04-27T05:20:38.538Z,63.73
2023-04-27T05:23:22.190Z,64.73
2023-04-27T05:26:17.698Z,64.61
2023-04-27T05:29:01.578Z,62.96
2023-04-27T05:31:45.865Z,61.32
2023-04-27T05:34:29.492Z,60.79
2023-04-27T05:37:13.431Z,62.82
2023-04-27T05:39:56.997Z,62.42
2023-04-27T05:42:40.545Z,61.96
2023-04-27T05:45:26.572Z,61.03
2023-04-27T05:48:10.138Z,61.37
2023-04-27T05:51:01.847Z,61.78
2023-04-27T05:53:45.774Z,61.13
2023-04-27T05:56:29.432Z,61.28
2023-04-27T05:59:13.733Z,60.47
2023-04-27T06:02:00.397Z,61.94
2023-04-27T06:04:44.524Z,61.34
2023-04-27T06:07:28.072Z,62.78
2023-04-27T06:10:12.171Z,61.20
2023-04-27T06:12:56.109Z,61.68
2023-04-27T06:15:40.121Z,61.69
2023-04-27T06:18:23.815Z,61.97
2023-04-27T06:21:07.504Z,62.49
2023-04-27T06:23:51.133Z,61.77
2023-04-27T06:26:34.762Z,61.40
2023-04-27T06:29:18.295Z,62.49
2023-04-27T06:32:02.024Z,62.53
2023-04-27T06:34:45.880Z,62.31
2023-04-27T06:37:29.451Z,61.85
2023-04-27T06:40:13.345Z,61.76
2023-04-27T06:42:57.334Z,61.42
2023-04-27T06:45:43.067Z,61.49
2023-04-27T06:48:27.013Z,60.32
2023-04-27T06:51:10.747Z,61.41
2023-04-27T06:53:54.274Z,61.33
2023-04-27T06:56:38.075Z,60.01
2023-04-27T06:59:22.006Z,58.94
2023-04-27T07:02:07.287Z,59.43
2023-04-27T07:04:51.471Z,59.03
2023-04-27T07:07:35.134Z,59.14
2023-04-27T07:10:18.863Z,57.61
2023-04-27T07:13:02.374Z,57.58
2023-04-27T07:15:45.895Z,57.12
2023-04-27T07:18:29.516Z,58.56
2023-04-27T07:21:13.014Z,57.91
2023-04-27T07:23:56.585Z,58.03
2023-04-27T07:26:40.066Z,58.64
2023-04-27T07:29:27.435Z,56.26
2023-04-27T07:32:11.384Z,57.21
2023-04-27T07:34:58.246Z,55.84
2023-04-27T07:37:46.377Z,55.79
2023-04-27T07:40:32.917Z,56.90
2023-04-27T07:46:58.698Z,54.49
2023-04-27T07:49:42.231Z,54.14
2023-04-27T07:56:47.610Z,54.82
2023-04-27T07:59:34.970Z,54.24
2023-04-27T08:02:20.366Z,54.11
2023-04-27T08:05:05.158Z,54.71
2023-04-27T08:07:49.134Z,55.04
2023-04-27T08:10:32.826Z,54.86
2023-04-27T08:13:16.322Z,53.45
2023-04-27T08:15:59.864Z,53.77
2023-04-27T08:18:44.761Z,52.91
2023-04-27T08:21:28.735Z,52.63
2023-04-27T08:28:20.427Z,53.03
2023-04-27T08:31:04.077Z,52.24
2023-04-27T08:33:57.997Z,52.09
2023-04-27T08:36:45.277Z,51.94
2023-04-27T08:39:32.230Z,51.50
2023-04-27T08:42:16.248Z,51.89
2023-04-27T08:44:59.877Z,51.75
2023-04-27T08:47:44.119Z,49.05
2023-04-27T08:50:28.008Z,48.69
2023-04-27T08:53:22.476Z,49.58
2023-04-27T08:56:06.560Z,47.94
2023-04-27T08:58:50.399Z,50.21
2023-04-27T09:01:34.261Z,49.43
2023-04-27T09:04:18.660Z,50.34
2023-04-27T09:07:24.570Z,51.86
2023-04-27T09:10:10.116Z,52.69
2023-04-27T09:13:01.222Z,54.77
2023-04-27T09:15:52.299Z,55.17
2023-04-27T09:18:38.138Z,55.81
2023-04-27T09:21:30.203Z,55.60
2023-04-27T09:24:14.197Z,55.72
2023-04-27T09:26:59.040Z,53.90
2023-04-27T09:29:44.187Z,53.95
2023-04-27T09:32:27.693Z,52.21
2023-04-27T09:35:26.842Z,51.10
2023-04-27T09:38:11.856Z,51.85
2023-04-27T09:41:03.385Z,51.75
2023-04-27T09:43:49.817Z,51.46
2023-04-27T09:46:34.444Z,50.71
2023-04-27T09:49:20.270Z,49.11
2023-04-27T09:52:04.347Z,49.81
2023-04-27T09:54:48.989Z,51.23
2023-04-27T09:57:53.535Z,51.32
2023-04-27T10:01:32.413Z,50.75
2023-04-27T10:05:06.467Z,50.05
2023-04-27T10:07:52.082Z,49.94
2023-04-27T10:10:49.326Z,51.85
2023-04-27T10:13:32.863Z,50.89
2023-04-27T10:16:19.570Z,48.07
2023-04-27T10:19:10.434Z,48.10
2023-04-27T10:22:08.306Z,48.93
2023-04-27T10:24:52.556Z,51.28
2023-04-27T10:27:40.056Z,52.25
2023-04-27T10:30:32.954Z,50.83
2023-04-27T10:33:23.985Z,50.73
2023-04-27T10:36:16.919Z,50.33
2023-04-27T10:39:03.327Z,50.41
2023-04-27T10:41:56.606Z,49.56
2023-04-27T10:44:59.713Z,49.27
2023-04-27T10:47:45.742Z,47.87
2023-04-27T10:50:29.742Z,47.72
2023-04-27T10:53:15.635Z,47.78
2023-04-27T10:55:59.133Z,47.21
2023-04-27T10:58:48.994Z,46.76
2023-04-27T11:01:33.174Z,45.99
2023-04-27T11:04:18.183Z,45.42
2023-04-27T11:07:04.785Z,44.88
2023-04-27T11:09:49.711Z,44.01
2023-04-27T11:12:33.324Z,41.43
2023-04-27T11:15:16.959Z,41.87
2023-04-27T11:18:07.516Z,41.82
2023-04-27T11:21:05.511Z,41.66
2023-04-27T11:23:49.091Z,44.30
2023-04-27T11:26:32.967Z,43.87
2023-04-27T11:29:16.960Z,45.78
2023-04-27T11:32:00.937Z,45.18
2023-04-27T11:34:54.636Z,44.59
2023-04-27T11:37:39.394Z,45.52
2023-04-27T11:40:24.574Z,44.81
2023-04-27T11:43:13.857Z,45.21
2023-04-27T11:45:58.674Z,45.21
2023-04-27T11:48:42.363Z,43.53
2023-04-27T11:51:26.106Z,43.38
2023-04-27T11:54:10.391Z,41.96
2023-04-27T11:57:06.180Z,39.70
2023-04-27T11:59:49.756Z,40.00
2023-04-27T12:02:33.442Z,42.29
2023-04-27T12:05:17.462Z,40.23
2023-04-27T12:08:02.004Z,40.50
2023-04-27T12:10:46.579Z,38.92
2023-04-27T12:13:30.155Z,40.98
2023-04-27T12:16:13.953Z,39.94
2023-04-27T12:18:57.669Z,40.44
2023-04-27T12:21:42.932Z,40.19
2023-04-27T12:24:27.277Z,38.94
2023-04-27T12:27:11.045Z,39.58
2023-04-27T12:29:55.325Z,38.83
2023-04-27T12:32:40.101Z,37.16
2023-04-27T12:35:24.002Z,37.74
2023-04-27T12:38:08.479Z,38.78
2023-04-27T12:40:53.119Z,38.73
2023-04-27T12:43:38.407Z,39.95
2023-04-27T12:46:22.196Z,38.02
2023-04-27T12:49:06.659Z,38.47
2023-04-27T12:51:52.386Z,37.96
2023-04-27T12:54:37.403Z,38.88
2023-04-27T12:57:21.367Z,39.99
2023-04-27T13:00:10.487Z,39.75
2023-04-27T13:02:54.604Z,39.31
2023-04-27T13:05:38.901Z,40.10
2023-04-27T13:08:25.639Z,40.71
2023-04-27T13:11:10.459Z,39.04
2023-04-27T13:13:55.320Z,39.47
2023-04-27T13:16:42.908Z,39.29
2023-04-27T13:19:26.935Z,38.93
2023-04-27T13:22:10.718Z,40.32
2023-04-27T13:24:54.795Z,39.85
2023-04-27T13:27:38.456Z,39.87
2023-04-27T13:30:22.175Z,40.83
2023-04-27T13:33:20.986Z,40.48
2023-04-27T13:36:06.425Z,40.33
2023-04-27T13:38:50.371Z,39.43
2023-04-27T13:41:35.210Z,40.28
2023-04-27T13:44:19.477Z,39.82
2023-04-27T13:47:03.595Z,38.98
2023-04-27T13:49:47.316Z,39.54
2023-04-27T13:52:31.152Z,40.49
2023-04-27T13:55:18.074Z,41.26
2023-04-27T13:58:08.465Z,40.92
2023-04-27T14:00:53.190Z,39.56
2023-04-27T14:03:42.705Z,40.42
2023-04-27T14:06:39.751Z,37.90
2023-04-27T14:09:27.226Z,40.04
2023-04-27T14:12:11.442Z,39.72
2023-04-27T14:14:57.887Z,39.14
2023-04-27T14:17:43.092Z,39.26
2023-04-27T14:20:28.272Z,36.77
2023-04-27T14:23:12.405Z,37.00
2023-04-27T14:25:56.593Z,37.04
2023-04-27T14:28:41.508Z,37.50
2023-04-27T14:31:29.683Z,37.14
2023-04-27T14:34:20.973Z,36.77
2023-04-27T14:37:07.570Z,37.29
2023-04-27T14:39:54.729Z,36.80
2023-04-27T14:42:39.352Z,36.29
2023-04-27T14:45:24.318Z,36.95
2023-04-27T14:48:08.873Z,37.04
2023-04-27T14:50:54.001Z,38.39
2023-04-27T14:53:41.203Z,36.37
2023-04-27T14:56:25.626Z,36.85
2023-04-27T14:59:09.471Z,36.76
2023-04-27T15:01:56.217Z,37.84
2023-04-27T15:04:41.894Z,37.72
2023-04-27T15:07:25.747Z,36.70
2023-04-27T15:10:15.887Z,37.13
2023-04-27T15:13:08.800Z,37.73
2023-04-27T15:16:01.091Z,37.50
2023-04-27T15:18:45.271Z,37.92
2023-04-27T15:21:31.714Z,36.43
2023-04-27T15:24:15.475Z,36.44
2023-04-27T15:26:59.824Z,36.19
2023-04-27T15:29:47.197Z,37.40
2023-04-27T15:32:32.580Z,37.89
2023-04-27T15:35:16.736Z,37.30
2023-04-27T15:38:01.039Z,37.48
2023-04-27T15:41:00.718Z,38.18
2023-04-27T15:43:47.694Z,38.83
2023-04-27T15:46:31.742Z,39.29
2023-04-27T15:49:30.578Z,37.94
2023-04-27T15:52:15.353Z,38.38
2023-04-27T15:55:01.908Z,38.21
2023-04-27T15:57:46.171Z,37.94
2023-04-27T16:00:33.983Z,38.65
2023-04-27T16:03:18.242Z,37.95
2023-04-27T16:06:02.381Z,36.97
2023-04-27T16:08:49.785Z,36.29
2023-04-27T16:11:33.773Z,37.41
2023-04-27T16:14:19.064Z,36.95
2023-04-27T16:17:06.951Z,36.16
2023-04-27T16:19:52.414Z,35.98
2023-04-27T16:22:37.932Z,37.52
2023-04-27T16:25:22.347Z,36.92
2023-04-27T16:28:06.798Z,37.09
2023-04-27T16:30:51.311Z,36.52
2023-04-27T16:33:34.901Z,35.94
2023-04-27T16:36:26.356Z,36.31
2023-04-27T16:39:10.917Z,35.61
2023-04-27T16:41:54.496Z,35.16
2023-04-27T16:44:38.649Z,34.67
2023-04-27T16:47:22.584Z,35.00
2023-04-27T16:50:06.630Z,35.56
2023-04-27T16:52:50.595Z,34.99
2023-04-27T16:55:35.169Z,34.48
2023-04-27T16:58:21.468Z,34.80
2023-04-27T17:01:05.258Z,34.74
2023-04-27T17:03:49.766Z,35.26
2023-04-27T17:06:33.452Z,35.34
2023-04-27T17:09:17.347Z,34.62
2023-04-27T17:12:00.998Z,35.81
2023-04-27T17:14:44.583Z,34.88
2023-04-27T17:17:28.174Z,34.87
2023-04-27T17:20:12.856Z,34.81
2023-04-27T17:22:56.542Z,35.74
2023-04-27T17:25:41.570Z,35.47
2023-04-27T17:28:25.157Z,34.61
2023-04-27T17:31:08.724Z,34.82
2023-04-27T17:33:52.409Z,36.03
2023-04-27T17:36:36.062Z,35.30
2023-04-27T17:39:20.690Z,35.63
2023-04-27T17:42:04.564Z,35.25
2023-04-27T17:44:48.495Z,35.89
2023-04-27T17:47:33.885Z,36.53
2023-04-27T17:50:17.751Z,36.50
2023-04-27T17:53:01.729Z,36.08
2023-04-27T17:55:45.875Z,36.31
2023-04-27T17:58:48.239Z,36.27
2023-04-27T18:01:32.316Z,36.48
2023-04-27T18:04:16.227Z,36.77
2023-04-27T18:07:00.023Z,35.91
2023-04-27T18:09:43.649Z,37.17
2023-04-27T18:12:27.315Z,38.46
2023-04-27T18:15:11.209Z,38.77
2023-04-27T18:17:55.372Z,39.07
2023-04-27T18:20:39.204Z,38.06
2023-04-27T18:23:22.973Z,38.52
2023-04-27T18:26:06.706Z,39.42
2023-04-27T18:28:50.268Z,39.48
2023-04-27T18:31:36.761Z,40.09
2023-04-27T18:34:20.577Z,39.08
2023-04-27T18:37:04.155Z,40.79
2023-04-27T18:39:47.717Z,41.01
2023-04-27T18:42:31.427Z,41.67
2023-04-27T18:45:16.586Z,41.87
2023-04-27T18:48:01.070Z,41.67
2023-04-27T18:50:45.200Z,41.70
2023-04-27T18:53:28.867Z,42.56
2023-04-27T18:56:12.641Z,42.97
2023-04-27T18:58:56.644Z,42.83
2023-04-27T19:01:41.250Z,43.26
2023-04-27T19:04:26.243Z,43.02
2023-04-27T19:07:10.585Z,43.45
2023-04-27T19:09:56.872Z,43.01
2023-04-27T19:12:40.650Z,44.23
2023-04-27T19:15:24.533Z,44.24
2023-04-27T19:18:11.365Z,44.51
2023-04-27T19:20:55.341Z,44.28
2023-04-27T19:23:39.471Z,43.91
2023-04-27T19:26:23.253Z,44.24
2023-04-27T19:29:08.106Z,43.83
2023-04-27T19:31:51.700Z,44.89
2023-04-27T19:34:35.577Z,45.66
2023-04-27T19:37:19.087Z,46.39
2023-04-27T19:40:02.925Z,47.35
2023-04-27T19:42:46.598Z,47.35
2023-04-27T19:45:30.525Z,47.00
2023-04-27T19:48:14.130Z,47.74
2023-04-27T19:50:58.175Z,46.49
2023-04-27T19:53:41.909Z,47.15
2023-04-27T19:56:25.293Z,47.99
2023-04-27T19:59:09.121Z,48.42
2023-04-27T20:01:53.156Z,48.67
2023-04-27T20:04:37.004Z,49.27
2023-04-27T20:07:20.943Z,50.11
2023-04-27T20:10:05.810Z,49.82
2023-04-27T20:12:56.773Z,49.31
2023-04-27T20:15:41.016Z,49.08
2023-04-27T20:18:26.166Z,49.32
2023-04-27T20:21:12.383Z,50.26
2023-04-27T20:23:56.050Z,49.78
2023-04-27T20:26:39.704Z,49.74
2023-04-27T20:29:23.756Z,49.63
2023-04-27T20:32:07.606Z,49.54
2023-04-27T20:34:51.153Z,49.31
2023-04-27T20:37:35.742Z,50.53
2023-04-27T20:40:20.477Z,50.47
2023-04-27T20:43:04.417Z,51.02
2023-04-27T20:45:48.022Z,50.54
2023-04-27T20:48:31.504Z,50.96
2023-04-27T20:51:15.076Z,51.75
2023-04-27T20:53:59.397Z,51.62
2023-04-27T20:56:42.979Z,51.65
2023-04-27T20:59:26.584Z,51.81
2023-04-27T21:02:10.088Z,51.40
2023-04-27T21:04:53.834Z,52.16
2023-04-27T21:07:38.058Z,52.00
2023-04-27T21:10:21.565Z,52.52
2023-04-27T21:13:05.204Z,52.72
2023-04-27T21:15:48.984Z,53.38
2023-04-27T21:18:33.757Z,53.88
2023-04-27T21:21:22.422Z,53.96
2023-04-27T21:24:08.167Z,53.77
2023-04-27T21:26:52.062Z,54.29
2023-04-27T21:29:38.119Z,53.74
2023-04-27T21:32:21.857Z,54.48
2023-04-27T21:35:08.070Z,55.34
2023-04-27T21:37:51.625Z,55.69
2023-04-27T21:40:35.172Z,55.52
2023-04-27T21:43:18.762Z,55.49
2023-04-27T21:46:02.755Z,56.47
2023-04-27T21:48:46.417Z,56.79
2023-04-27T21:51:30.140Z,57.00
2023-04-27T21:54:13.971Z,56.94
2023-04-27T21:56:57.790Z,55.46
2023-04-27T21:59:41.474Z,56.28
2023-04-27T22:02:29.600Z,55.94
2023-04-27T22:05:14.316Z,57.59
2023-04-27T22:07:58.040Z,57.70
2023-04-27T22:10:41.836Z,57.17
2023-04-27T22:13:25.568Z,56.77
2023-04-27T22:16:09.521Z,57.35
2023-04-27T22:18:54.198Z,57.06
2023-04-27T22:21:37.928Z,58.98
2023-04-27T22:24:21.566Z,58.43
2023-04-27T22:27:05.208Z,57.35
2023-04-27T22:29:48.729Z,57.66
2023-04-27T22:32:33.364Z,58.13
2023-04-27T22:38:04.317Z,56.83
2023-04-27T22:40:47.938Z,57.81
2023-04-27T22:43:34.162Z,58.31
2023-04-27T22:46:17.696Z,58.38
2023-04-27T22:49:03.681Z,58.17
2023-04-27T22:51:47.342Z,57.73
2023-04-27T22:54:31.400Z,57.91
2023-04-27T22:57:14.909Z,58.03
2023-04-27T22:59:58.590Z,58.65
2023-04-27T23:02:43.057Z,60.25
2023-04-27T23:05:27.371Z,59.35
2023-04-27T23:08:10.876Z,58.65
2023-04-27T23:10:54.803Z,59.19
2023-04-27T23:13:38.317Z,58.95
2023-04-27T23:16:22.005Z,59.36
2023-04-27T23:19:05.619Z,60.16
2023-04-27T23:21:49.346Z,60.17
2023-04-27T23:24:32.945Z,60.77
2023-04-27T23:27:16.438Z,60.53
2023-04-27T23:29:59.971Z,60.62
2023-04-27T23:32:43.707Z,61.57
2023-04-27T23:35:28.839Z,60.78
2023-04-27T23:38:12.398Z,61.10
2023-04-27T23:40:55.957Z,60.96
2023-04-27T23:43:39.729Z,60.75
2023-04-27T23:46:23.320Z,61.50
2023-04-27T23:49:06.945Z,62.24
2023-04-27T23:51:53.064Z,62.83
2023-04-27T23:54:36.766Z,62.92
2023-04-27T23:57:20.639Z,62.58
